»·PEaware :: DAL2635 KGEG-KSEA

DAL2635 :: KGEG-KSEA

FLIGHT INFORMATION

Flight Status: Arrived
Operator:
Delta Air Lines
More flights by this operator :: More flights under this callsign
Pilot: Austin C. (26034)
Aircraft: AIRBUS A319
(A319)
More flights by this aircraft type
Origin: KGEG Spokane Intl
United States
Destination: KSEA Seattle-Tacoma Intl
United States
More flights between these airports :: More routes between these airports
Route: GEG GLASR1
File this flight plan on PilotEdge
Remarks: RMK / SIMBRIEF
Altitude:
(Current/Filed)
28,000ft
Speed:
(Current/Filed)
488kts
Departed: 11-Feb-21 01:20 PM
Arrived: 11-Feb-21 02:13 PM
Distance/Time
Traveled:
194nm/0:52
Distance/Time
To Go:
Arrived

Flight Plot

Page will automatically refresh every two minutes.

Flight plan parsing failed; only flown route is shown


Map Options




Map Legend


Flown Route
Filed Route
Departure Airport
Arrival Airport
Navaid (VOR, NDB)
Fix

Horizontal Profiles

Position Reports

Time Latitude Longitude Heading Altitude Ground
Speed
11-Feb-21 12:53 47.624095 -117.536598 63 2391ft 0kts
11-Feb-21 12:53 47.624095 -117.536598 63 2391ft 0kts
11-Feb-21 12:54 47.624095 -117.536598 63 2391ft 0kts
11-Feb-21 12:56 47.624095 -117.536598 63 2391ft 0kts
11-Feb-21 12:56 47.624095 -117.536598 63 2391ft 0kts
11-Feb-21 12:57 47.624095 -117.536598 63 2391ft 0kts
11-Feb-21 12:58 47.624095 -117.536598 63 2391ft 0kts
11-Feb-21 12:59 47.624095 -117.536598 63 2391ft 0kts
11-Feb-21 13:00 47.624095 -117.536598 63 2391ft 0kts
11-Feb-21 13:01 47.624095 -117.536598 63 2391ft 0kts
11-Feb-21 13:02 47.624095 -117.536598 63 2391ft 0kts
11-Feb-21 13:03 47.624095 -117.536598 63 2391ft 0kts
11-Feb-21 13:04 47.624095 -117.536599 63 2391ft 0kts
11-Feb-21 13:05 47.624068 -117.536678 62 2391ft 2kts
11-Feb-21 13:06 47.623980 -117.537501 126 2391ft 2kts
11-Feb-21 13:07 47.624054 -117.537617 135 2391ft 0kts
11-Feb-21 13:08 47.624054 -117.537617 135 2391ft 0kts
11-Feb-21 13:09 47.624054 -117.537617 135 2391ft 0kts
11-Feb-21 13:10 47.624054 -117.537617 135 2391ft 0kts
11-Feb-21 13:11 47.624054 -117.537617 135 2391ft 0kts
11-Feb-21 13:12 47.624053 -117.537615 135 2391ft 0kts
11-Feb-21 13:13 47.621771 -117.536553 224 2391ft 17kts
11-Feb-21 13:14 47.618081 -117.542139 223 2391ft 15kts
11-Feb-21 13:15 47.615460 -117.546048 224 2391ft 22kts
11-Feb-21 13:16 47.611832 -117.551483 221 2391ft 0kts
11-Feb-21 13:17 47.611818 -117.551502 221 2391ft 0kts
11-Feb-21 13:18 47.611630 -117.551666 193 2391ft 10kts
11-Feb-21 13:19 47.618704 -117.537103 45 2393ft 147kts
11-Feb-21 13:20 47.651216 -117.491266 43 4922ft 178kts
11-Feb-21 13:21 47.693399 -117.432623 43 7216ft 239kts
11-Feb-21 13:22 47.702989 -117.344753 135 10233ft 268kts
11-Feb-21 13:23 47.632312 -117.346360 241 12127ft 299kts
11-Feb-21 13:24 47.609347 -117.473027 254 13673ft 356kts
11-Feb-21 13:25 47.572208 -117.615034 264 16348ft 365kts
11-Feb-21 13:26 47.577732 -117.758214 281 19143ft 356kts
11-Feb-21 13:27 47.591789 -117.905655 281 21590ft 367kts
11-Feb-21 13:28 47.606093 -118.057549 281 23730ft 378kts
11-Feb-21 13:29 47.620563 -118.213555 281 25641ft 383kts
11-Feb-21 13:30 47.634554 -118.367199 280 27921ft 373kts
11-Feb-21 13:31 47.648152 -118.518585 280 28209ft 372kts
11-Feb-21 13:32 47.661697 -118.671894 280 28213ft 374kts
11-Feb-21 13:33 47.675041 -118.825496 279 28210ft 376kts
11-Feb-21 13:34 47.688132 -118.978088 279 28237ft 378kts
11-Feb-21 13:35 47.701353 -119.134568 279 28283ft 380kts
11-Feb-21 13:36 47.714383 -119.291663 279 28298ft 381kts
11-Feb-21 13:37 47.727065 -119.447464 279 28300ft 382kts
11-Feb-21 13:38 47.739714 -119.605336 279 28300ft 383kts
11-Feb-21 13:39 47.752071 -119.762936 278 27645ft 386kts
11-Feb-21 13:40 47.764345 -119.922270 279 26640ft 391kts
11-Feb-21 13:41 47.776584 -120.083837 279 25636ft 395kts
11-Feb-21 13:42 47.788679 -120.246730 279 24625ft 387kts
11-Feb-21 13:43 47.800388 -120.407305 279 23620ft 391kts
11-Feb-21 13:44 47.811851 -120.567469 279 22617ft 387kts
11-Feb-21 13:45 47.822903 -120.725807 278 21617ft 382kts
11-Feb-21 13:46 47.832387 -120.863959 278 20736ft 379kts
11-Feb-21 13:47 47.843035 -121.021776 277 19715ft 375kts
11-Feb-21 13:48 47.853247 -121.176511 277 18709ft 374kts
11-Feb-21 13:49 47.863072 -121.328380 277 17718ft 372kts
11-Feb-21 13:50 47.872798 -121.481602 277 16735ft 356kts
11-Feb-21 13:51 47.881146 -121.617211 277 16001ft 293kts
11-Feb-21 13:52 47.865570 -121.731004 231 15997ft 308kts
11-Feb-21 13:53 47.802157 -121.817632 229 15989ft 309kts
11-Feb-21 13:54 47.738581 -121.903616 229 15987ft 309kts
11-Feb-21 13:55 47.675647 -121.988339 229 15067ft 291kts
11-Feb-21 13:56 47.618326 -122.065345 227 13036ft 275kts
11-Feb-21 13:57 47.561936 -122.140772 226 12107ft 273kts
11-Feb-21 13:58 47.488567 -122.155007 178 11820ft 284kts
11-Feb-21 13:59 47.412351 -122.142784 178 10299ft 259kts
11-Feb-21 14:00 47.346226 -122.136179 177 8799ft 224kts
11-Feb-21 14:01 47.284490 -122.132790 178 7309ft 222kts
11-Feb-21 14:02 47.223600 -122.131983 178 5561ft 215kts
11-Feb-21 14:03 47.165432 -122.132439 178 4975ft 205kts
11-Feb-21 14:04 47.136639 -122.186487 293 4987ft 215kts
11-Feb-21 14:05 47.169368 -122.258386 325 4977ft 215kts
11-Feb-21 14:06 47.217716 -122.308735 338 3544ft 211kts
11-Feb-21 14:07 47.269348 -122.312234 3 3290ft 181kts
11-Feb-21 14:08 47.319037 -122.312135 2 2790ft 166kts
11-Feb-21 14:09 47.362137 -122.311834 1 1914ft 141kts
11-Feb-21 14:10 47.399413 -122.311509 0 1221ft 130kts
11-Feb-21 14:11 47.435455 -122.311252 359 531ft 129kts
11-Feb-21 14:12 47.452304 -122.307868 82 435ft 27kts
11-Feb-21 14:13 47.446147 -122.306342 181 435ft 22kts
11-Feb-21 14:14 47.441250 -122.304931 88 435ft 17kts
11-Feb-21 14:15 47.441248 -122.304439 90 435ft 0kts

Navigation Log

Ident Type
Flight plan parsing failed, navigation log unavailable